Time;durP1;ratioP1;P1;durP2;ratioP2;P2;SDS_P1;SDS_P2;PMS_P1;PMS_P2;Temp;Humidity;BMP_temperature;BMP_pressure;BME280_temperature;BME280_humidity;BME280_pressure;Samples;Min_cycle;Max_cycle;Signal;HPM_P1;HPM_P2
2023/12/28 00:00:38;;;;;;;48.30;21.70;;;;;;;1.76;79.19;101371.64;108833;1255;74749;-62
2023/12/28 00:03:25;;;;;;;51.40;19.90;;;;;;;1.80;79.14;101376.43;108902;1256;67573;-61
2023/12/28 00:05:52;;;;;;;46.70;19.70;;;;;;;1.82;79.27;101375.20;107119;1256;138669;-61
2023/12/28 00:08:19;;;;;;;46.10;19.60;;;;;;;1.83;79.04;101369.88;104697;1256;62597;-61
2023/12/28 00:10:45;;;;;;;42.90;17.90;;;;;;;1.85;79.26;101356.87;104598;1256;140140;-63
2023/12/28 00:13:12;;;;;;;39.80;18.50;;;;;;;1.84;79.24;101350.53;104919;1258;74851;-64
2023/12/28 00:15:39;;;;;;;35.30;17.40;;;;;;;1.83;79.05;101337.88;104894;1260;65501;-63
2023/12/28 00:18:06;;;;;;;41.00;18.60;;;;;;;1.81;79.11;101325.94;104636;1256;139381;-61
2023/12/28 00:20:32;;;;;;;43.70;18.60;;;;;;;1.77;79.02;101320.48;104801;1256;62118;-64
2023/12/28 00:23:00;;;;;;;39.30;17.00;;;;;;;1.75;79.17;101325.23;104551;1256;138637;-63
2023/12/28 00:25:27;;;;;;;43.70;19.50;;;;;;;1.75;79.41;101318.80;104938;1256;75868;-63
2023/12/28 00:27:53;;;;;;;41.10;19.40;;;;;;;1.77;79.37;101318.56;104848;1260;139248;-62
2023/12/28 00:30:20;;;;;;;38.20;18.00;;;;;;;1.78;79.49;101318.11;104770;1256;74009;-63
2023/12/28 00:32:47;;;;;;;39.70;17.80;;;;;;;1.77;79.52;101313.21;104822;1260;62147;-63
2023/12/28 00:35:14;;;;;;;34.60;18.00;;;;;;;1.76;79.44;101313.66;104819;1258;138659;-62
2023/12/28 00:37:40;;;;;;;38.00;17.50;;;;;;;1.74;79.42;101317.33;104798;1260;76408;-61
2023/12/28 00:40:07;;;;;;;43.50;18.30;;;;;;;1.72;79.63;101318.76;104683;1256;139090;-60
2023/12/28 00:42:34;;;;;;;35.30;16.20;;;;;;;1.71;79.57;101317.83;104610;1259;73693;-62
2023/12/28 00:45:02;;;;;;;33.50;14.70;;;;;;;1.69;79.53;101311.14;104952;1256;62077;-62
2023/12/28 00:47:28;;;;;;;34.50;14.30;;;;;;;1.70;79.74;101298.91;104783;1256;139515;-62
2023/12/28 00:49:55;;;;;;;29.10;13.60;;;;;;;1.71;79.88;101300.88;104678;1256;76058;-62
2023/12/28 00:52:22;;;;;;;33.00;13.70;;;;;;;1.71;79.81;101305.92;104684;1256;140405;-62
2023/12/28 00:54:49;;;;;;;31.50;14.10;;;;;;;1.72;79.89;101300.63;104749;1256;73133;-63
2023/12/28 00:57:15;;;;;;;34.80;13.30;;;;;;;1.75;80.09;101298.93;104670;1261;62628;-62
2023/12/28 00:59:43;;;;;;;35.70;13.00;;;;;;;1.77;79.85;101297.64;104677;1260;140149;-63
2023/12/28 01:02:10;;;;;;;31.90;13.10;;;;;;;1.79;79.94;101295.16;104928;1256;75534;-61
2023/12/28 01:04:36;;;;;;;36.40;14.50;;;;;;;1.81;80.05;101282.49;104640;1261;140343;-63
2023/12/28 01:07:05;;;;;;;32.80;14.60;;;;;;;1.83;80.14;101274.01;104743;1256;72675;-63
2023/12/28 01:09:32;;;;;;;32.90;13.40;;;;;;;1.86;80.01;101264.88;108828;1255;60033;-61
2023/12/28 01:11:59;;;;;;;31.80;13.90;;;;;;;1.91;80.09;101252.73;108800;1256;138709;-62
2023/12/28 01:14:25;;;;;;;28.70;13.10;;;;;;;1.93;80.13;101249.98;107553;1257;74215;-62
2023/12/28 01:16:52;;;;;;;26.60;13.50;;;;;;;1.95;80.03;101258.05;104867;1260;140557;-62
2023/12/28 01:19:19;;;;;;;32.00;13.20;;;;;;;1.96;79.98;101267.27;104783;1256;70940;-66
2023/12/28 01:21:46;;;;;;;39.00;13.90;;;;;;;1.95;79.87;101271.54;108866;1256;59914;-66
2023/12/28 01:24:13;;;;;;;25.60;12.90;;;;;;;1.90;79.83;101264.27;106408;1259;63954;-65
2023/12/28 01:26:39;;;;;;;31.70;13.40;;;;;;;1.85;79.73;101253.54;104735;1259;75275;-63
2023/12/28 01:29:06;;;;;;;32.90;14.00;;;;;;;1.76;79.53;101252.95;104617;1258;139529;-61
2023/12/28 01:31:33;;;;;;;33.50;13.90;;;;;;;1.66;79.67;101248.30;104676;1261;71498;-63
2023/12/28 01:34:00;;;;;;;34.30;14.80;;;;;;;1.60;79.79;101244.60;104760;1260;139558;-64
2023/12/28 01:36:29;;;;;;;28.90;13.80;;;;;;;1.55;79.77;101244.23;108859;1256;60083;-63
2023/12/28 01:38:56;;;;;;;30.30;14.50;;;;;;;1.49;79.82;101236.20;108918;1256;76730;-62
2023/12/28 01:41:22;;;;;;;27.70;14.00;;;;;;;1.42;79.82;101224.02;108807;1255;138800;-63
2023/12/28 01:43:49;;;;;;;39.40;15.00;;;;;;;1.35;79.81;101222.34;108873;1255;74116;-63
2023/12/28 01:46:20;;;;;;;33.90;14.90;;;;;;;1.27;79.90;101221.73;108767;1255;139327;-62
2023/12/28 01:48:48;;;;;;;34.50;14.50;;;;;;;1.23;79.91;101212.94;108872;1256;60331;-63
2023/12/28 01:51:15;;;;;;;33.80;14.40;;;;;;;1.18;79.90;101186.33;108889;1255;74906;-63
2023/12/28 01:53:43;;;;;;;34.40;14.20;;;;;;;1.14;80.00;101163.46;108738;1255;139085;-63
2023/12/28 01:56:09;;;;;;;34.60;14.30;;;;;;;1.10;80.12;101154.88;108857;1255;72449;-63
2023/12/28 01:58:36;;;;;;;36.20;15.30;;;;;;;1.06;80.25;101151.45;108794;1255;139049;-62
2023/12/28 02:01:03;;;;;;;32.60;15.00;;;;;;;1.01;80.24;101148.88;104881;1256;62072;-62
2023/12/28 02:03:30;;;;;;;31.60;15.50;;;;;;;0.96;80.36;101141.65;104811;1256;75976;-67
2023/12/28 02:05:57;;;;;;;35.30;15.70;;;;;;;0.92;80.56;101137.24;104733;1256;139545;-62
2023/12/28 02:08:24;;;;;;;32.70;17.10;;;;;;;0.89;80.42;101126.60;104810;1260;73322;-63
2023/12/28 02:10:50;;;;;;;35.00;18.10;;;;;;;0.86;80.49;101127.77;104709;1259;139806;-64
2023/12/28 02:13:17;;;;;;;39.70;18.20;;;;;;;0.84;80.61;101125.78;104847;1256;62361;-62
2023/12/28 02:15:44;;;;;;;41.40;19.60;;;;;;;0.84;80.88;101119.89;104756;1256;73684;-63
2023/12/28 02:18:12;;;;;;;47.50;19.60;;;;;;;0.86;81.19;101113.98;104628;1261;138953;-63
2023/12/28 02:20:39;;;;;;;39.90;20.00;;;;;;;0.89;81.22;101104.54;104822;1256;71548;-65
2023/12/28 02:23:06;;;;;;;42.60;20.50;;;;;;;0.92;81.13;101096.44;104641;1257;138954;-65
2023/12/28 02:25:33;;;;;;;47.90;21.20;;;;;;;0.96;81.40;101089.95;104905;1256;62045;-65
2023/12/28 02:28:00;;;;;;;42.50;21.10;;;;;;;1.00;81.42;101083.83;104655;1260;139506;-64
2023/12/28 02:30:26;;;;;;;37.60;19.70;;;;;;;1.01;81.30;101068.53;104892;1260;65493;-66
2023/12/28 02:33:21;;;;;;;41.50;19.80;;;;;;;1.04;81.58;101053.98;104623;1255;73771;-66
2023/12/28 02:35:59;;;;;;;45.80;20.10;;;;;;;1.07;81.65;101046.27;104534;1260;140640;-65
2023/12/28 02:38:27;;;;;;;40.10;19.60;;;;;;;1.10;81.64;101041.98;104814;1261;62055;-67
2023/12/28 02:40:53;;;;;;;41.30;19.10;;;;;;;1.13;81.76;101036.34;104584;1256;140656;-67
2023/12/28 02:43:20;;;;;;;40.30;20.80;;;;;;;1.15;81.78;101028.19;104721;1259;67560;-67
2023/12/28 02:45:47;;;;;;;45.70;20.60;;;;;;;1.20;81.84;101022.06;104696;1260;73987;-64
2023/12/28 02:48:14;;;;;;;43.30;21.30;;;;;;;1.23;81.66;101020.38;104675;1256;62131;-65
2023/12/28 02:50:40;;;;;;;43.90;20.90;;;;;;;1.26;81.95;101018.85;104780;1259;66237;-65
2023/12/28 02:53:07;;;;;;;44.20;21.10;;;;;;;1.29;81.93;101006.64;104671;1256;138866;-66
2023/12/28 02:55:34;;;;;;;38.00;20.80;;;;;;;1.32;81.90;100997.86;104701;1258;65283;-66
2023/12/28 02:58:00;;;;;;;42.20;22.30;;;;;;;1.35;82.02;101002.36;104583;1256;140569;-65
2023/12/28 03:00:27;;;;;;;50.10;23.60;;;;;;;1.38;82.08;100986.96;104808;1256;62096;-66
2023/12/28 03:02:54;;;;;;;48.10;23.10;;;;;;;1.42;82.09;100975.80;104819;1255;62074;-66
2023/12/28 03:05:21;;;;;;;45.20;23.50;;;;;;;1.46;82.10;100968.13;104670;1256;138880;-65
2023/12/28 03:07:48;;;;;;;48.90;24.80;;;;;;;1.49;82.22;100962.48;104753;1256;67373;-66
2023/12/28 03:10:15;;;;;;;47.40;24.10;;;;;;;1.54;82.18;100960.86;104888;1257;139076;-66
2023/12/28 03:12:41;;;;;;;51.30;23.10;;;;;;;1.60;82.19;100961.90;104746;1258;62154;-66
2023/12/28 03:15:08;;;;;;;49.80;23.30;;;;;;;1.62;82.21;100962.93;104882;1260;62039;-65
2023/12/28 03:17:36;;;;;;;50.50;22.80;;;;;;;1.64;82.17;100965.50;104605;1260;139171;-65
2023/12/28 03:20:03;;;;;;;48.80;23.40;;;;;;;1.67;81.94;100957.89;108842;1255;65982;-66
2023/12/28 03:22:30;;;;;;;41.90;21.50;;;;;;;1.71;82.18;100954.69;108765;1256;139000;-63
2023/12/28 03:24:57;;;;;;;51.50;23.30;;;;;;;1.77;82.25;100953.69;108909;1256;59793;-63
2023/12/28 03:27:23;;;;;;;43.00;21.40;;;;;;;1.82;82.17;100954.32;108934;1255;60230;-62
2023/12/28 03:29:50;;;;;;;43.10;21.60;;;;;;;1.84;82.11;100950.84;108801;1256;139361;-62
2023/12/28 03:32:16;;;;;;;38.60;21.40;;;;;;;1.87;81.98;100941.67;108908;1256;66418;-62
2023/12/28 03:34:43;;;;;;;50.70;22.30;;;;;;;1.89;81.81;100929.50;108104;1256;138924;-62
2023/12/28 03:37:11;;;;;;;47.50;21.70;;;;;;;1.90;81.75;100922.66;104761;1260;62164;-60
2023/12/28 03:39:38;;;;;;;47.50;22.30;;;;;;;1.90;81.83;100914.86;104950;1256;62166;-61
2023/12/28 03:42:04;;;;;;;50.60;21.70;;;;;;;1.88;81.78;100913.52;104739;1259;139280;-61
2023/12/28 03:44:31;;;;;;;54.90;22.20;;;;;;;1.86;81.64;100909.56;104691;1256;66929;-60
2023/12/28 03:46:58;;;;;;;43.90;21.40;;;;;;;1.82;81.76;100908.00;104712;1256;139634;-60
2023/12/28 03:49:24;;;;;;;38.60;21.30;;;;;;;1.79;81.67;100908.60;104751;1258;62412;-61
2023/12/28 03:51:51;;;;;;;41.10;21.70;;;;;;;1.75;81.72;100898.73;104763;1260;138734;-62
2023/12/28 03:54:18;;;;;;;44.00;21.30;;;;;;;1.73;81.70;100889.25;104947;1256;75982;-62
2023/12/28 03:56:46;;;;;;;42.90;22.30;;;;;;;1.71;81.86;100870.80;108898;1256;65305;-61
2023/12/28 03:59:15;;;;;;;55.40;21.80;;;;;;;1.68;81.95;100865.91;108775;1256;138167;-62
2023/12/28 04:01:41;;;;;;;48.00;22.80;;;;;;;1.65;81.97;100871.09;108873;1256;59821;-64
2023/12/28 04:04:08;;;;;;;48.70;21.80;;;;;;;1.63;81.87;100869.07;108719;1256;139994;-62
2023/12/28 04:06:35;;;;;;;38.30;20.50;;;;;;;1.61;81.90;100865.84;108930;1256;75185;-62
2023/12/28 04:09:02;;;;;;;47.10;21.50;;;;;;;1.61;81.91;100855.61;108884;1256;66946;-62
2023/12/28 04:11:29;;;;;;;47.80;22.20;;;;;;;1.59;81.96;100835.29;108771;1256;139907;-62
2023/12/28 04:13:55;;;;;;;44.60;21.60;;;;;;;1.58;82.05;100818.79;108905;1256;59964;-62
2023/12/28 04:16:22;;;;;;;44.90;20.40;;;;;;;1.58;82.18;100803.02;108816;1256;139598;-62
2023/12/28 04:18:49;;;;;;;46.90;23.10;;;;;;;1.55;82.21;100782.80;108872;1256;76004;-62
2023/12/28 04:21:15;;;;;;;41.30;19.70;;;;;;;1.53;82.03;100773.49;108942;1255;65060;-62
2023/12/28 04:23:42;;;;;;;39.30;20.20;;;;;;;1.49;81.82;100770.64;108754;1256;139385;-62
2023/12/28 04:26:09;;;;;;;39.00;21.60;;;;;;;1.45;81.88;100769.34;108856;1256;60093;-62
2023/12/28 04:28:35;;;;;;;42.60;20.10;;;;;;;1.41;81.99;100762.05;108769;1256;139045;-62
2023/12/28 04:31:05;;;;;;;39.20;19.10;;;;;;;1.40;82.16;100753.32;108916;1256;76248;-62
2023/12/28 04:33:32;;;;;;;49.50;20.00;;;;;;;1.40;82.30;100750.90;108901;1255;66273;-62
2023/12/28 04:36:05;;;;;;;40.20;19.80;;;;;;;1.41;82.17;100747.85;108695;1256;138916;-62
2023/12/28 04:38:32;;;;;;;41.20;19.10;;;;;;;1.43;82.43;100760.63;108878;1256;60145;-62
2023/12/28 04:40:59;;;;;;;32.60;17.80;;;;;;;1.45;82.44;100751.73;108764;1256;138951;-62
2023/12/28 04:43:26;;;;;;;35.60;17.70;;;;;;;1.45;82.32;100737.41;108933;1256;73976;-62
2023/12/28 04:45:53;;;;;;;43.80;18.10;;;;;;;1.47;82.34;100734.91;108367;1260;139205;-62
2023/12/28 04:48:20;;;;;;;36.90;18.20;;;;;;;1.47;82.35;100732.88;104950;1256;72985;-62
2023/12/28 04:50:48;;;;;;;35.30;17.90;;;;;;;1.47;82.29;100719.33;108887;1256;60074;-63
2023/12/28 04:53:15;;;;;;;33.10;17.20;;;;;;;1.45;82.34;100712.85;108775;1255;139631;-62
2023/12/28 04:55:42;;;;;;;35.00;17.30;;;;;;;1.44;82.20;100708.95;106755;1258;75458;-61
2023/12/28 04:58:10;;;;;;;35.70;16.10;;;;;;;1.44;82.40;100699.63;104688;1256;139409;-62
2023/12/28 05:00:37;;;;;;;33.70;16.00;;;;;;;1.46;82.31;100696.28;104904;1259;73217;-61
2023/12/28 05:03:04;;;;;;;39.70;17.40;;;;;;;1.49;82.40;100700.11;104964;1256;62192;-62
2023/12/28 05:05:31;;;;;;;38.90;16.60;;;;;;;1.52;82.58;100704.23;108819;1256;138915;-62
2023/12/28 05:07:58;;;;;;;36.60;15.40;;;;;;;1.54;82.53;100688.84;108922;1256;75060;-62
2023/12/28 05:10:24;;;;;;;30.40;14.90;;;;;;;1.58;82.51;100685.23;108773;1254;139216;-62
2023/12/28 05:12:51;;;;;;;33.80;16.30;;;;;;;1.60;82.50;100667.04;108878;1256;72463;-61
2023/12/28 05:15:19;;;;;;;31.90;16.10;;;;;;;1.62;82.40;100648.14;108899;1256;59797;-63
2023/12/28 05:17:46;;;;;;;29.90;14.80;;;;;;;1.64;82.36;100648.20;108769;1256;139000;-63
2023/12/28 05:20:12;;;;;;;29.50;15.60;;;;;;;1.68;82.42;100640.20;106416;1256;75304;-62
2023/12/28 05:22:39;;;;;;;32.00;15.50;;;;;;;1.73;82.45;100632.02;104679;1260;139214;-61
2023/12/28 05:25:07;;;;;;;34.40;16.00;;;;;;;1.79;82.55;100638.00;104799;1256;73276;-62
2023/12/28 05:27:33;;;;;;;33.00;15.50;;;;;;;1.82;82.62;100632.48;104806;1259;62160;-62
2023/12/28 05:30:00;;;;;;;28.80;14.60;;;;;;;1.86;82.31;100633.79;104676;1259;139159;-64
2023/12/28 05:32:27;;;;;;;33.20;15.40;;;;;;;1.88;82.25;100636.47;104744;1256;76439;-65
2023/12/28 05:34:54;;;;;;;35.80;16.70;;;;;;;1.86;82.36;100629.30;104634;1260;139822;-64
2023/12/28 05:37:20;;;;;;;38.20;15.20;;;;;;;1.86;82.11;100599.20;104751;1257;75304;-65
2023/12/28 05:39:47;;;;;;;31.70;14.90;;;;;;;1.86;82.04;100585.33;104762;1261;62150;-65
2023/12/28 05:42:14;;;;;;;35.40;16.00;;;;;;;1.84;81.96;100587.27;104830;1256;62557;-65
2023/12/28 05:44:40;;;;;;;42.60;18.90;;;;;;;1.84;82.08;100586.98;104726;1261;76791;-65
2023/12/28 05:47:07;;;;;;;35.30;16.60;;;;;;;1.87;82.21;100594.38;104816;1259;139423;-64
2023/12/28 05:49:34;;;;;;;34.60;15.80;;;;;;;1.89;82.19;100594.18;104900;1256;74271;-65
2023/12/28 05:52:01;;;;;;;34.30;16.40;;;;;;;1.92;82.19;100623.58;104613;1256;140971;-64
2023/12/28 05:54:28;;;;;;;42.60;16.90;;;;;;;1.92;82.13;100629.09;104819;1256;62049;-64
2023/12/28 05:56:54;;;;;;;39.30;17.40;;;;;;;1.92;82.03;100633.60;104845;1256;76332;-64
2023/12/28 05:59:22;;;;;;;30.10;15.20;;;;;;;1.94;81.96;100619.20;104907;1257;138925;-64
2023/12/28 06:01:48;;;;;;;34.50;15.30;;;;;;;1.97;82.00;100591.81;104826;1260;73738;-65
2023/12/28 06:04:15;;;;;;;31.30;14.50;;;;;;;2.00;82.06;100604.79;104712;1256;140581;-64
2023/12/28 06:06:42;;;;;;;34.70;15.10;;;;;;;2.02;81.94;100597.83;104641;1256;62097;-66
2023/12/28 06:09:09;;;;;;;31.90;15.00;;;;;;;2.04;81.94;100594.16;104922;1257;75585;-63
2023/12/28 06:11:35;;;;;;;32.00;14.70;;;;;;;2.05;81.87;100597.51;104589;1256;138937;-65
2023/12/28 06:14:02;;;;;;;27.10;15.00;;;;;;;2.06;81.84;100598.05;104723;1256;73979;-62
2023/12/28 06:16:32;;;;;;;33.40;15.00;;;;;;;2.09;81.82;100594.25;104683;1256;139302;-61
2023/12/28 06:19:00;;;;;;;29.30;16.30;;;;;;;2.10;81.78;100587.25;104844;1256;61939;-62
2023/12/28 06:21:26;;;;;;;31.00;16.80;;;;;;;2.12;81.80;100589.21;104837;1260;74579;-61
2023/12/28 06:23:53;;;;;;;34.80;17.20;;;;;;;2.15;81.83;100598.58;104619;1260;139297;-63
2023/12/28 06:26:20;;;;;;;31.70;16.30;;;;;;;2.16;81.77;100598.81;104761;1256;71178;-63
2023/12/28 06:28:46;;;;;;;28.20;15.60;;;;;;;2.20;81.83;100589.49;104623;1256;138175;-67
2023/12/28 06:31:13;;;;;;;37.10;16.50;;;;;;;2.26;81.87;100574.92;104782;1256;62032;-65
2023/12/28 06:33:40;;;;;;;31.50;15.70;;;;;;;2.28;81.74;100557.23;108749;1256;76603;-63
2023/12/28 06:36:07;;;;;;;36.50;17.90;;;;;;;2.31;81.75;100544.06;107697;1257;138393;-63
2023/12/28 06:38:34;;;;;;;31.80;16.60;;;;;;;2.36;81.72;100551.91;108917;1256;73058;-64
2023/12/28 06:41:01;;;;;;;35.10;16.30;;;;;;;2.38;81.53;100551.54;108785;1256;139091;-64
2023/12/28 06:43:34;;;;;;;29.80;16.70;;;;;;;2.43;81.44;100549.70;108961;1256;60556;-64
2023/12/28 06:46:01;;;;;;;32.90;15.80;;;;;;;2.49;81.55;100549.34;106963;1256;139472;-61
2023/12/28 06:48:28;;;;;;;34.10;16.10;;;;;;;2.53;81.39;100552.34;105022;1259;67027;-63
2023/12/28 06:50:55;;;;;;;38.00;16.50;;;;;;;2.57;81.39;100554.77;104851;1257;72145;-63
2023/12/28 06:53:22;;;;;;;30.00;15.60;;;;;;;2.62;81.45;100553.15;104708;1256;139506;-63
2023/12/28 06:55:49;;;;;;;33.30;16.60;;;;;;;2.65;81.26;100549.19;104787;1259;62161;-63
2023/12/28 06:58:15;;;;;;;31.60;16.30;;;;;;;2.71;81.28;100560.77;104683;1258;139474;-64
2023/12/28 07:00:43;;;;;;;35.10;16.70;;;;;;;2.72;81.25;100567.60;104847;1256;66439;-62
2023/12/28 07:03:10;;;;;;;31.70;16.30;;;;;;;2.74;81.07;100572.34;104813;1257;74005;-61
2023/12/28 07:05:37;;;;;;;35.00;16.70;;;;;;;2.75;81.14;100571.34;104791;1257;139113;-61
2023/12/28 07:08:04;;;;;;;32.90;15.40;;;;;;;2.76;81.18;100563.45;104935;1259;62310;-62
2023/12/28 07:10:31;;;;;;;33.00;16.00;;;;;;;2.76;81.08;100567.58;108594;1256;138719;-61
2023/12/28 07:12:57;;;;;;;31.40;15.50;;;;;;;2.76;81.00;100569.18;105171;1256;64376;-61
2023/12/28 07:15:25;;;;;;;32.40;17.00;;;;;;;2.78;81.03;100570.61;104951;1256;73279;-61
2023/12/28 07:17:51;;;;;;;31.40;17.40;;;;;;;2.81;81.01;100570.27;104717;1256;138401;-62
2023/12/28 07:20:18;;;;;;;33.10;17.30;;;;;;;2.83;80.98;100569.52;105036;1256;62090;-61
2023/12/28 07:22:45;;;;;;;35.00;15.80;;;;;;;2.84;81.04;100566.14;104986;1256;138302;-61
2023/12/28 07:25:11;;;;;;;30.10;17.20;;;;;;;2.86;80.98;100564.13;105054;1258;66396;-62
2023/12/28 07:27:38;;;;;;;32.70;17.20;;;;;;;2.86;80.99;100563.64;104879;1257;73071;-62
2023/12/28 07:30:07;;;;;;;30.00;16.80;;;;;;;2.88;80.94;100571.53;105036;1258;141502;-62
2023/12/28 07:32:34;;;;;;;38.20;17.90;;;;;;;2.90;81.08;100575.29;109072;1255;60052;-62
2023/12/28 07:35:01;;;;;;;37.30;17.40;;;;;;;2.94;80.95;100578.25;108917;1256;138990;-62
2023/12/28 07:37:27;;;;;;;35.30;16.80;;;;;;;2.98;80.95;100576.89;109041;1256;65236;-62
2023/12/28 07:39:54;;;;;;;30.60;15.80;;;;;;;3.04;81.01;100574.09;109025;1255;139475;-62
2023/12/28 07:42:21;;;;;;;32.80;15.80;;;;;;;3.12;81.05;100584.55;109067;1256;60019;-62
2023/12/28 07:44:47;;;;;;;31.50;16.20;;;;;;;3.20;81.08;100577.87;109067;1256;60015;-62
2023/12/28 07:47:15;;;;;;;32.30;15.10;;;;;;;3.27;80.89;100579.98;108943;1256;138925;-63
2023/12/28 07:49:41;;;;;;;29.70;16.00;;;;;;;3.33;80.88;100574.57;109060;1256;65509;-62
2023/12/28 07:52:08;;;;;;;29.30;15.20;;;;;;;3.40;80.73;100571.28;108920;1260;139105;-62
2023/12/28 07:54:35;;;;;;;31.60;15.50;;;;;;;3.42;80.66;100572.42;109088;1256;60130;-62
2023/12/28 07:57:01;;;;;;;34.00;15.10;;;;;;;3.45;80.49;100565.08;109105;1256;60272;-62
2023/12/28 07:59:28;;;;;;;26.40;14.20;;;;;;;3.46;80.41;100569.52;108981;1254;138731;-62
2023/12/28 08:01:55;;;;;;;30.60;13.60;;;;;;;3.51;80.45;100573.38;109010;1255;67725;-62
2023/12/28 08:04:22;;;;;;;32.60;15.50;;;;;;;3.54;80.41;100563.27;108967;1256;138424;-62
2023/12/28 08:06:48;;;;;;;27.50;14.80;;;;;;;3.56;80.35;100559.38;106098;1257;62164;-62
2023/12/28 08:09:15;;;;;;;27.30;14.50;;;;;;;3.59;80.31;100562.84;104901;1259;62818;-62
2023/12/28 08:11:42;;;;;;;27.10;14.70;;;;;;;3.59;80.37;100558.67;104860;1259;139916;-63
2023/12/28 08:14:08;;;;;;;26.50;14.00;;;;;;;3.58;80.31;100553.95;104898;1259;66226;-62
2023/12/28 08:16:35;;;;;;;30.20;14.60;;;;;;;3.60;80.38;100557.69;104826;1258;139046;-61
2023/12/28 08:19:02;;;;;;;27.60;14.40;;;;;;;3.63;80.49;100562.71;104929;1257;62079;-62
2023/12/28 08:21:28;;;;;;;39.90;21.30;;;;;;;3.65;80.49;100576.18;105004;1256;62037;-61
2023/12/28 08:23:55;;;;;;;53.70;26.10;;;;;;;3.71;80.46;100576.48;104756;1260;139180;-61
2023/12/28 08:26:22;;;;;;;42.50;22.30;;;;;;;3.81;80.82;100579.36;104895;1255;65428;-61
2023/12/28 08:28:48;;;;;;;39.30;21.30;;;;;;;3.90;80.84;100578.78;104843;1256;138586;-62
2023/12/28 08:31:15;;;;;;;32.30;16.50;;;;;;;4.01;81.00;100578.42;104897;1256;61984;-61
2023/12/28 08:33:42;;;;;;;37.60;19.00;;;;;;;4.11;80.96;100588.82;105093;1258;63868;-67
2023/12/28 08:36:09;;;;;;;68.00;33.20;;;;;;;4.20;81.00;100582.50;108772;1256;138277;-63
2023/12/28 08:38:36;;;;;;;56.20;27.00;;;;;;;4.29;80.98;100581.17;109016;1262;66130;-63
2023/12/28 08:41:08;;;;;;;55.30;28.60;;;;;;;4.35;81.01;100584.39;108937;1256;138043;-61
2023/12/28 08:43:36;;;;;;;54.80;27.10;;;;;;;4.42;80.87;100590.48;109072;1256;60290;-62
2023/12/28 08:46:03;;;;;;;45.50;24.40;;;;;;;4.48;80.82;100589.55;109008;1258;138986;-61
2023/12/28 08:48:29;;;;;;;48.60;26.10;;;;;;;4.53;80.75;100589.60;109074;1255;76361;-61
2023/12/28 08:50:56;;;;;;;55.40;28.90;;;;;;;4.56;80.70;100589.21;107156;1258;66310;-62
2023/12/28 08:53:23;;;;;;;54.60;26.30;;;;;;;4.62;80.72;100589.81;105055;1258;139845;-63
2023/12/28 08:55:49;;;;;;;43.10;20.70;;;;;;;4.69;80.78;100589.98;104984;1256;62398;-62
2023/12/28 08:58:16;;;;;;;82.30;37.50;;;;;;;4.74;80.65;100602.92;104868;1257;138993;-61
2023/12/28 09:00:45;;;;;;;39.20;21.10;;;;;;;4.79;80.70;100608.02;104868;1259;75821;-61
2023/12/28 09:03:12;;;;;;;51.00;26.00;;;;;;;4.85;80.68;100606.88;104916;1258;66849;-62
2023/12/28 09:05:39;;;;;;;43.40;20.90;;;;;;;4.90;80.70;100611.24;104847;1261;139320;-62
2023/12/28 09:08:06;;;;;;;58.30;26.00;;;;;;;4.96;80.84;100613.98;104899;1257;62152;-62
2023/12/28 09:10:33;;;;;;;49.60;26.40;;;;;;;5.02;80.73;100611.13;104828;1258;139414;-61
2023/12/28 09:12:59;;;;;;;58.90;31.00;;;;;;;5.08;80.84;100612.29;105058;1258;74395;-61
2023/12/28 09:15:26;;;;;;;49.90;28.50;;;;;;;5.16;80.82;100611.06;105086;1262;65212;-62
2023/12/28 09:17:53;;;;;;;30.10;17.10;;;;;;;5.26;80.88;100601.92;104755;1259;138176;-62
2023/12/28 09:20:19;;;;;;;35.00;18.40;;;;;;;5.36;80.86;100589.99;104919;1256;62111;-62
2023/12/28 09:22:47;;;;;;;32.50;17.60;;;;;;;5.46;80.78;100589.41;105036;1260;138723;-63
2023/12/28 09:25:14;;;;;;;28.60;16.10;;;;;;;5.54;80.72;100591.31;109027;1255;76428;-61
2023/12/28 09:27:41;;;;;;;30.40;15.30;;;;;;;5.63;80.67;100586.65;109034;1256;65565;-64
2023/12/28 09:30:08;;;;;;;33.30;16.80;;;;;;;5.73;80.59;100592.95;105540;1254;138493;-64
2023/12/28 09:32:35;;;;;;;28.10;15.80;;;;;;;5.80;80.55;100591.18;105948;1259;62275;-62
2023/12/28 09:35:02;;;;;;;34.00;16.70;;;;;;;5.89;80.50;100591.72;104894;1260;139341;-62
2023/12/28 09:37:29;;;;;;;34.10;17.00;;;;;;;5.97;80.48;100591.02;104868;1263;75695;-62
2023/12/28 09:39:55;;;;;;;34.40;16.00;;;;;;;6.07;80.42;100586.19;104887;1255;139376;-61
2023/12/28 09:42:26;;;;;;;39.00;19.80;;;;;;;6.12;80.36;100581.87;105050;1258;73934;-61
2023/12/28 09:44:53;;;;;;;37.70;20.50;;;;;;;6.20;80.33;100581.67;107094;1259;62039;-62
2023/12/28 09:47:20;;;;;;;33.90;17.30;;;;;;;6.27;80.31;100577.26;104830;1259;138984;-63
2023/12/28 09:49:47;;;;;;;33.30;18.30;;;;;;;6.34;80.26;100577.69;104992;1260;74776;-63
2023/12/28 09:52:14;;;;;;;41.40;19.90;;;;;;;6.38;80.15;100577.16;104966;1265;139118;-64
2023/12/28 09:54:40;;;;;;;26.00;15.60;;;;;;;6.39;79.96;100569.86;104890;1259;73241;-60
2023/12/28 09:57:07;;;;;;;43.80;20.50;;;;;;;6.37;79.87;100565.45;105071;1255;62195;-60
2023/12/28 09:59:34;;;;;;;39.40;19.20;;;;;;;6.37;79.77;100560.38;104810;1260;138743;-65
2023/12/28 10:02:01;;;;;;;33.50;19.50;;;;;;;6.34;79.83;100557.84;104914;1260;75689;-65
2023/12/28 10:04:29;;;;;;;21.90;15.10;;;;;;;6.32;79.76;100555.30;104960;1260;139209;-64
2023/12/28 10:06:55;;;;;;;26.60;15.30;;;;;;;6.30;79.80;100551.58;108615;1257;72156;-63
2023/12/28 10:09:22;;;;;;;24.50;16.30;;;;;;;6.28;79.91;100548.52;104883;1257;62089;-64
2023/12/28 10:11:49;;;;;;;28.70;14.60;;;;;;;6.29;79.91;100552.21;104866;1260;139533;-63
2023/12/28 10:14:15;;;;;;;25.70;17.00;;;;;;;6.28;79.95;100552.52;104987;1261;76439;-63
2023/12/28 10:16:42;;;;;;;23.20;14.90;;;;;;;6.29;79.96;100558.51;104986;1260;139672;-62
2023/12/28 10:19:09;;;;;;;21.00;14.50;;;;;;;6.32;80.09;100557.05;104965;1257;72805;-63
2023/12/28 10:21:36;;;;;;;23.60;12.60;;;;;;;6.39;80.24;100561.14;104990;1260;62148;-64
2023/12/28 10:24:03;;;;;;;20.30;13.40;;;;;;;6.47;80.36;100557.26;108679;1256;139024;-63
2023/12/28 10:26:30;;;;;;;21.00;11.60;;;;;;;6.52;80.31;100554.84;106162;1259;76038;-63
2023/12/28 10:29:01;;;;;;;21.40;14.20;;;;;;;6.58;80.39;100550.03;104917;1257;138893;-62
2023/12/28 10:31:28;;;;;;;22.70;13.30;;;;;;;6.61;80.25;100557.64;107633;1258;73039;-63
2023/12/28 10:33:58;;;;;;;20.30;13.10;;;;;;;6.64;80.18;100560.70;104897;1260;138447;-63
2023/12/28 10:36:25;;;;;;;24.60;14.80;;;;;;;6.65;80.14;100562.84;104845;1260;62156;-64
2023/12/28 10:38:52;;;;;;;34.30;16.30;;;;;;;6.61;79.98;100561.48;104766;1257;75835;-62
2023/12/28 10:41:18;;;;;;;34.40;16.20;;;;;;;6.60;80.04;100562.30;104463;1256;248811;-62
2023/12/28 10:43:47;;;;;;;26.40;14.40;;;;;;;6.61;80.06;100557.30;104914;1260;73451;-63
2023/12/28 10:46:22;;;;;;;24.30;13.60;;;;;;;6.63;80.12;100564.00;104951;1267;139898;-67
2023/12/28 10:48:48;;;;;;;20.40;12.00;;;;;;;6.64;80.11;100560.72;105006;1257;62214;-63
2023/12/28 10:51:17;;;;;;;25.40;12.30;;;;;;;6.64;80.12;100559.83;104822;1257;76105;-62
2023/12/28 10:54:03;;;;;;;21.70;12.50;;;;;;;6.66;80.15;100564.45;108799;1257;139891;-62
2023/12/28 10:56:38;;;;;;;27.90;13.00;;;;;;;6.69;80.03;100552.34;108972;1256;71623;-64
2023/12/28 10:59:05;;;;;;;25.60;13.40;;;;;;;6.64;79.76;100561.60;108552;1256;140166;-63
2023/12/28 11:01:33;;;;;;;30.50;17.00;;;;;;;6.56;79.60;100572.11;105012;1259;62753;-64
2023/12/28 11:04:04;;;;;;;31.50;16.30;;;;;;;6.54;79.81;100575.85;104849;1261;138943;-64
2023/12/28 11:06:30;;;;;;;34.70;19.10;;;;;;;6.57;79.90;100569.69;109031;1257;64629;-64